Time;durP1;ratioP1;P1;durP2;ratioP2;P2;SDS_P1;SDS_P2;PMS_P1;PMS_P2;Temp;Humidity;BMP_temperature;BMP_pressure;BME280_temperature;BME280_humidity;BME280_pressure;Samples;Min_cycle;Max_cycle;Signal;HPM_P1;HPM_P2
2022/05/10 00:00:20;;;;;;;4.47;1.60;;;;;;;8.74;46.09;100404.95;1772374;81;21040;-71
2022/05/10 00:02:54;;;;;;;3.95;1.85;;;;;;;8.67;46.75;100401.69;1769789;80;21501;-71
2022/05/10 00:05:32;;;;;;;6.17;1.57;;;;;;;8.64;45.92;100401.72;1772121;80;21037;-70
2022/05/10 00:08:00;;;;;;;2.60;1.15;;;;;;;8.58;46.95;100402.87;1772702;80;20982;-71
2022/05/10 00:10:29;;;;;;;2.35;1.65;;;;;;;8.57;47.39;100403.96;1768986;81;21068;-72
2022/05/10 00:12:57;;;;;;;5.10;1.50;;;;;;;8.55;47.87;100400.13;1773808;80;21142;-71
2022/05/10 00:15:26;;;;;;;3.10;1.40;;;;;;;8.56;48.73;100400.96;1765070;80;21205;-72
2022/05/10 00:17:53;;;;;;;4.03;1.50;;;;;;;8.51;48.92;100398.47;1776068;80;21032;-71
2022/05/10 00:20:22;;;;;;;2.90;1.77;;;;;;;8.43;49.49;100396.33;1774205;80;21043;-67
2022/05/10 00:22:50;;;;;;;3.90;1.85;;;;;;;8.40;49.67;100396.91;1769855;80;21559;-72
2022/05/10 00:25:28;;;;;;;2.37;1.45;;;;;;;8.39;49.50;100396.64;1775380;80;21155;-70
2022/05/10 00:27:56;;;;;;;6.20;1.80;;;;;;;8.35;49.78;100393.64;1773971;80;20982;-72
2022/05/10 00:30:23;;;;;;;3.08;1.60;;;;;;;8.30;49.92;100390.92;1772696;80;20986;-71
2022/05/10 00:32:50;;;;;;;3.80;1.47;;;;;;;8.29;50.09;100393.38;1772164;81;21088;-73
2022/05/10 00:35:24;;;;;;;3.05;1.60;;;;;;;8.29;50.33;100394.75;1775454;80;21041;-71
2022/05/10 00:37:54;;;;;;;4.33;1.62;;;;;;;8.26;50.01;100387.09;1773324;80;21109;-72
2022/05/10 00:40:25;;;;;;;4.70;1.60;;;;;;;8.24;49.73;100392.06;1780974;79;21041;-72
2022/05/10 00:43:31;;;;;;;2.50;1.40;;;;;;;8.20;49.69;100379.99;1773758;79;21561;-70
2022/05/10 00:46:03;;;;;;;3.22;1.47;;;;;;;8.09;48.90;100375.09;1772105;80;21036;-73
2022/05/10 00:48:49;;;;;;;4.70;1.77;;;;;;;7.94;49.31;100383.69;1769415;80;21530;-73
2022/05/10 00:51:27;;;;;;;3.30;1.50;;;;;;;7.89;49.85;100386.45;1778147;80;21105;-65
2022/05/10 00:54:17;;;;;;;3.20;1.77;;;;;;;7.73;49.70;100379.64;1770593;80;21024;-71
2022/05/10 00:57:17;;;;;;;3.55;1.82;;;;;;;7.64;50.87;100385.45;1772220;80;21017;-71
2022/05/10 01:00:09;;;;;;;3.33;1.80;;;;;;;7.63;51.35;100390.11;1771833;80;21037;-70
2022/05/10 01:02:44;;;;;;;3.02;1.72;;;;;;;7.66;51.93;100391.45;1765747;80;20989;-72
2022/05/10 01:05:30;;;;;;;5.25;1.72;;;;;;;7.70;51.85;100389.81;1769492;81;21140;-71
2022/05/10 01:08:29;;;;;;;2.80;1.60;;;;;;;7.72;51.69;100395.02;1770371;79;21057;-70
2022/05/10 01:11:26;;;;;;;4.42;2.08;;;;;;;7.60;51.83;100392.58;1775105;80;21547;-71
2022/05/10 01:14:19;;;;;;;6.67;1.37;;;;;;;7.51;51.62;100387.67;1778620;80;21032;-70
2022/05/10 01:16:47;;;;;;;3.67;1.80;;;;;;;7.49;52.07;100386.31;1773828;80;21001;-71
2022/05/10 01:19:14;;;;;;;2.67;1.77;;;;;;;7.48;52.37;100391.52;1772969;80;21248;-72
2022/05/10 01:22:11;;;;;;;4.03;1.92;;;;;;;7.45;52.85;100390.16;1773075;79;21020;-70
2022/05/10 01:25:18;;;;;;;4.42;1.80;;;;;;;7.41;53.32;100390.43;1772321;80;21060;-70
2022/05/10 01:27:50;;;;;;;6.55;2.40;;;;;;;7.35;53.39;100384.16;1773438;80;21095;-71
2022/05/10 01:30:24;;;;;;;4.35;1.72;;;;;;;7.26;53.66;100391.28;1773062;80;21053;-71
2022/05/10 01:36:13;;;;;;;2.52;1.62;;;;;;;7.22;54.01;100395.66;1772999;80;20990;-70
2022/05/10 01:39:13;;;;;;;4.15;1.77;;;;;;;7.20;53.78;100388.28;1773915;80;21146;-70
2022/05/10 01:42:11;;;;;;;4.45;1.87;;;;;;;7.19;53.66;100390.20;1771705;80;20969;-72
2022/05/10 01:45:02;;;;;;;4.30;2.15;;;;;;;7.17;53.86;100389.64;1773822;80;20997;-69
2022/05/10 01:47:38;;;;;;;6.53;2.25;;;;;;;7.17;54.04;100384.99;1769407;80;21311;-73
2022/05/10 01:50:16;;;;;;;2.27;1.67;;;;;;;7.14;54.14;100386.92;1773080;79;20994;-72
2022/05/10 01:53:06;;;;;;;6.15;2.15;;;;;;;7.11;54.37;100383.36;1754404;80;21138;-71
2022/05/10 01:55:44;;;;;;;10.58;2.40;;;;;;;7.05;54.44;100385.27;1763193;80;21571;-70
2022/05/10 01:58:20;;;;;;;6.78;2.10;;;;;;;6.99;54.37;100377.33;1769443;80;21079;-71
2022/05/10 02:01:07;;;;;;;4.28;2.05;;;;;;;6.89;54.37;100377.59;1773782;80;21965;-70
2022/05/10 02:04:16;;;;;;;6.80;2.22;;;;;;;6.88;54.49;100383.35;1770872;80;21001;-73
2022/05/10 02:06:51;;;;;;;6.30;2.60;;;;;;;6.89;54.81;100376.80;1771888;79;21087;-72
2022/05/10 02:09:37;;;;;;;5.20;2.52;;;;;;;6.91;55.21;100379.52;1773657;80;21029;-73
2022/05/10 02:12:32;;;;;;;5.55;2.87;;;;;;;6.93;55.76;100380.61;1772227;80;22305;-71
2022/05/10 02:15:04;;;;;;;7.08;3.10;;;;;;;6.84;56.17;100377.59;1773718;80;21243;-72
2022/05/10 02:17:56;;;;;;;5.90;3.27;;;;;;;6.72;56.75;100382.54;1770509;80;21033;-71
2022/05/10 02:20:36;;;;;;;6.07;3.60;;;;;;;6.64;57.31;100380.61;1772796;80;21146;-71
2022/05/10 02:23:11;;;;;;;4.92;2.80;;;;;;;6.42;57.11;100381.68;1771825;80;20973;-72
2022/05/10 02:25:41;;;;;;;9.15;3.47;;;;;;;6.38;57.75;100386.61;1794828;78;21067;-73
2022/05/10 02:28:55;;;;;;;6.47;3.95;;;;;;;6.40;57.92;100381.66;1769895;80;21022;-73
2022/05/10 02:31:30;;;;;;;6.05;3.12;;;;;;;6.43;58.05;100390.72;1771376;80;20994;-71
2022/05/10 02:33:57;;;;;;;6.60;3.58;;;;;;;6.36;58.28;100388.25;1770602;80;21032;-73
2022/05/10 02:36:23;;;;;;;6.35;3.62;;;;;;;6.25;58.77;100384.65;1773732;80;21557;-70
2022/05/10 02:38:50;;;;;;;8.70;4.60;;;;;;;6.21;59.56;100384.90;1773021;80;21025;-71
2022/05/10 02:41:20;;;;;;;9.75;4.92;;;;;;;6.20;59.75;100384.09;1773006;80;21231;-72
2022/05/10 02:43:56;;;;;;;8.95;4.78;;;;;;;6.19;59.99;100386.54;1771986;80;21107;-72
2022/05/10 02:46:25;;;;;;;8.00;5.03;;;;;;;6.19;60.03;100388.48;1773582;80;21001;-71
2022/05/10 02:48:53;;;;;;;8.23;4.83;;;;;;;6.17;60.34;100388.75;1770501;80;21478;-72
2022/05/10 02:51:20;;;;;;;6.92;4.15;;;;;;;6.20;60.59;100388.73;1773101;79;20974;-72
2022/05/10 02:53:47;;;;;;;14.15;4.50;;;;;;;6.26;60.96;100390.39;1773461;80;21085;-71
2022/05/10 02:56:17;;;;;;;8.65;4.70;;;;;;;6.32;61.27;100390.70;1770155;80;20998;-72
2022/05/10 02:59:02;;;;;;;10.63;4.97;;;;;;;6.38;61.37;100383.87;1772283;80;21025;-71
2022/05/10 03:01:42;;;;;;;7.75;4.90;;;;;;;6.44;61.38;100384.98;1772417;80;21504;-71
2022/05/10 03:04:11;;;;;;;11.90;4.92;;;;;;;6.52;60.79;100387.72;1755747;80;21041;-67
2022/05/10 03:06:38;;;;;;;17.57;5.17;;;;;;;6.58;60.63;100386.62;1768559;80;21634;-72
2022/05/10 03:09:05;;;;;;;13.70;5.00;;;;;;;6.58;60.55;100383.88;1773507;79;20966;-72
2022/05/10 03:11:32;;;;;;;14.30;5.30;;;;;;;6.59;60.67;100381.97;1773044;80;21037;-73
2022/05/10 03:13:59;;;;;;;11.53;6.15;;;;;;;6.60;60.78;100385.54;1773407;80;20985;-67
2022/05/10 03:16:27;;;;;;;10.10;4.28;;;;;;;6.67;60.83;100390.21;1773531;80;21068;-72
2022/05/10 03:18:55;;;;;;;10.58;4.72;;;;;;;6.74;61.09;100388.00;1776601;80;21130;-68
2022/05/10 03:21:22;;;;;;;8.90;5.20;;;;;;;6.81;60.86;100394.58;1780091;80;21537;-73
2022/05/10 03:23:51;;;;;;;11.30;5.03;;;;;;;6.90;61.01;100397.06;1780596;80;21584;-70
2022/05/10 03:26:22;;;;;;;10.25;5.37;;;;;;;6.98;60.97;100397.63;1780761;80;21024;-72
2022/05/10 03:28:49;;;;;;;17.75;5.62;;;;;;;7.04;60.89;100392.41;1781008;80;21036;-72
2022/05/10 03:31:17;;;;;;;12.58;6.00;;;;;;;7.12;60.97;100393.22;1777760;79;21151;-71
2022/05/10 03:33:45;;;;;;;18.48;6.87;;;;;;;7.17;61.02;100393.75;1771458;80;21044;-71
2022/05/10 03:36:11;;;;;;;14.73;6.70;;;;;;;7.20;60.97;100393.77;1780605;79;21529;-70
2022/05/10 03:38:40;;;;;;;13.58;6.65;;;;;;;7.25;60.75;100389.08;1780985;80;21067;-69
2022/05/10 03:41:07;;;;;;;16.65;6.55;;;;;;;7.30;60.96;100395.93;1780784;79;21485;-71
2022/05/10 03:43:34;;;;;;;13.85;6.42;;;;;;;7.32;60.62;100394.28;1780390;79;21094;-71
2022/05/10 03:46:06;;;;;;;17.98;6.92;;;;;;;7.36;60.27;100395.38;1780564;79;21029;-72
2022/05/10 03:48:33;;;;;;;16.90;7.80;;;;;;;7.42;60.05;100393.46;1780995;80;21489;-72
2022/05/10 03:51:00;;;;;;;16.82;8.10;;;;;;;7.50;59.86;100397.00;1780789;79;21031;-73
2022/05/10 03:53:26;;;;;;;15.45;8.23;;;;;;;7.59;59.83;100395.06;1780546;80;21040;-72
2022/05/10 03:55:55;;;;;;;16.27;7.85;;;;;;;7.66;59.76;100395.57;1780622;80;21528;-69
2022/05/10 03:58:21;;;;;;;19.75;8.90;;;;;;;7.74;59.59;100397.77;1778226;80;21092;-70
2022/05/10 04:00:47;;;;;;;20.82;10.40;;;;;;;7.82;59.59;100392.78;1781436;79;21053;-72
2022/05/10 04:03:13;;;;;;;24.55;10.70;;;;;;;7.90;59.41;100393.56;1779622;79;21056;-71
2022/05/10 04:05:40;;;;;;;29.30;12.18;;;;;;;7.95;59.24;100401.78;1780957;79;21048;-70
2022/05/10 04:08:07;;;;;;;31.02;14.33;;;;;;;8.01;58.33;100403.42;1780154;80;21138;-71
2022/05/10 04:10:34;;;;;;;27.20;13.48;;;;;;;8.00;57.96;100401.77;1780574;79;21029;-68
2022/05/10 04:13:01;;;;;;;28.73;14.15;;;;;;;8.04;57.50;100403.39;1781135;79;21079;-71
2022/05/10 04:15:28;;;;;;;32.33;11.78;;;;;;;8.07;57.15;100399.28;1780438;80;21483;-71
2022/05/10 04:17:55;;;;;;;23.83;11.30;;;;;;;8.13;56.87;100403.64;1776556;79;21045;-72
2022/05/10 04:20:23;;;;;;;26.40;11.33;;;;;;;8.23;56.52;100404.13;1778851;80;21141;-70
2022/05/10 04:22:50;;;;;;;21.55;10.05;;;;;;;8.30;56.63;100407.40;1773011;80;20986;-73
2022/05/10 04:25:25;;;;;;;25.65;10.72;;;;;;;8.39;56.72;100409.00;1772508;80;21035;-74
2022/05/10 04:27:51;;;;;;;21.17;11.13;;;;;;;8.51;56.54;100408.66;1772404;80;21032;-73
2022/05/10 04:30:20;;;;;;;23.75;10.72;;;;;;;8.60;56.33;100404.77;1776153;80;21250;-71
2022/05/10 04:32:47;;;;;;;30.00;11.78;;;;;;;8.69;56.12;100401.69;1777432;79;21099;-72
2022/05/10 04:35:13;;;;;;;22.17;11.68;;;;;;;8.78;56.01;100412.06;1772456;80;21021;-69
2022/05/10 04:37:39;;;;;;;23.27;10.88;;;;;;;8.83;55.35;100405.16;1772214;80;21111;-72
2022/05/10 04:42:54;;;;;;;25.62;12.47;;;;;;;8.99;55.53;100403.13;1773552;80;21473;-71
2022/05/10 04:45:21;;;;;;;25.05;12.00;;;;;;;9.08;55.21;100404.13;1772490;80;21496;-68
2022/05/10 04:47:48;;;;;;;24.70;12.03;;;;;;;9.19;54.64;100404.05;1772951;80;21021;-71
2022/05/10 04:50:16;;;;;;;30.55;12.75;;;;;;;9.26;54.55;100397.66;1775741;80;21032;-68
2022/05/10 04:52:46;;;;;;;23.05;10.82;;;;;;;9.38;54.87;100391.77;1769143;80;20989;-72
2022/05/10 04:55:15;;;;;;;17.45;9.93;;;;;;;9.53;54.99;100389.95;1775646;80;21025;-74
2022/05/10 04:57:43;;;;;;;21.00;8.95;;;;;;;9.67;54.41;100390.88;1768911;80;21489;-72
2022/05/10 05:00:13;;;;;;;21.60;8.90;;;;;;;9.80;52.66;100388.55;1774992;80;21504;-70
2022/05/10 05:02:42;;;;;;;25.57;9.75;;;;;;;9.88;51.76;100389.27;1777288;80;21522;-71
2022/05/10 05:05:10;;;;;;;21.95;9.45;;;;;;;10.00;51.35;100388.85;1780112;80;21598;-71
2022/05/10 05:07:40;;;;;;;23.05;7.87;;;;;;;10.11;50.32;100386.80;1780437;80;21036;-72
2022/05/10 05:10:07;;;;;;;18.90;8.55;;;;;;;10.23;50.50;100389.91;1778010;79;21158;-73
2022/05/10 05:12:38;;;;;;;17.55;8.28;;;;;;;10.37;50.54;100389.20;1773169;79;21568;-70
2022/05/10 05:15:08;;;;;;;23.60;8.85;;;;;;;10.45;49.38;100391.29;1769088;81;20973;-74
2022/05/10 05:17:39;;;;;;;19.45;8.25;;;;;;;10.56;48.59;100388.41;1767705;80;21528;-71
2022/05/10 05:20:08;;;;;;;17.27;8.13;;;;;;;10.64;47.82;100390.49;1756516;81;20992;-70
2022/05/10 05:22:40;;;;;;;15.65;8.05;;;;;;;10.73;48.13;100387.05;1756318;81;21503;-72
2022/05/10 05:25:07;;;;;;;17.32;9.03;;;;;;;10.85;47.56;100398.41;1763485;81;21083;-71
2022/05/10 05:27:34;;;;;;;17.35;8.13;;;;;;;10.94;47.27;100388.36;1766868;81;21556;-73
2022/05/10 05:30:01;;;;;;;12.65;7.28;;;;;;;11.04;46.07;100390.11;1760825;80;22463;-72
2022/05/10 05:32:30;;;;;;;19.27;8.28;;;;;;;11.12;45.69;100391.38;1763254;81;20977;-71
2022/05/10 05:34:58;;;;;;;14.58;5.83;;;;;;;11.19;44.45;100386.27;1766533;81;21469;-70
2022/05/10 05:37:33;;;;;;;15.93;6.62;;;;;;;11.23;44.27;100380.97;1759979;81;21485;-72
2022/05/10 05:40:02;;;;;;;14.10;6.50;;;;;;;11.31;44.13;100383.60;1761683;81;20996;-71
2022/05/10 05:42:30;;;;;;;16.45;6.17;;;;;;;11.41;44.58;100376.48;1757913;81;21535;-72
2022/05/10 05:44:59;;;;;;;16.95;6.50;;;;;;;11.57;44.68;100384.48;1767323;81;21008;-72
2022/05/10 05:47:31;;;;;;;15.20;6.35;;;;;;;11.69;43.87;100379.83;1763258;81;21017;-69
2022/05/10 05:49:59;;;;;;;12.70;7.00;;;;;;;11.79;43.00;100380.18;1746677;80;21051;-71
2022/05/10 05:52:27;;;;;;;11.12;5.40;;;;;;;11.84;41.24;100377.31;1778446;79;21008;-71
2022/05/10 05:54:56;;;;;;;12.15;5.70;;;;;;;11.87;42.06;100376.73;1766235;80;21001;-71
2022/05/10 05:57:28;;;;;;;10.10;3.92;;;;;;;11.96;40.60;100374.62;1765935;81;21067;-72
2022/05/10 05:59:55;;;;;;;6.50;3.60;;;;;;;12.01;38.65;100378.07;1766232;81;21201;-74
2022/05/10 06:02:25;;;;;;;8.53;3.45;;;;;;;12.07;38.40;100371.05;1765462;81;21091;-70
2022/05/10 06:04:51;;;;;;;14.35;3.95;;;;;;;12.13;38.64;100373.42;1768014;81;21515;-72
2022/05/10 06:07:19;;;;;;;10.13;4.05;;;;;;;12.23;38.53;100371.58;1767546;81;21035;-73
2022/05/10 06:09:47;;;;;;;14.75;4.10;;;;;;;12.23;37.64;100370.20;1766142;81;21008;-66
2022/05/10 06:12:17;;;;;;;10.88;4.03;;;;;;;12.28;38.08;100372.84;1766257;81;21245;-70
2022/05/10 06:14:45;;;;;;;7.72;3.95;;;;;;;12.37;37.21;100377.05;1766420;81;21032;-65
2022/05/10 06:17:14;;;;;;;9.75;4.45;;;;;;;12.42;36.33;100371.41;1724089;80;21070;-69
2022/05/10 06:19:41;;;;;;;10.35;3.27;;;;;;;12.45;36.90;100373.57;1771385;79;21477;-71
2022/05/10 06:22:10;;;;;;;6.03;2.50;;;;;;;12.49;35.57;100373.73;1754680;79;21002;-67
2022/05/10 06:24:38;;;;;;;5.00;2.08;;;;;;;12.49;33.89;100370.97;1774207;79;21083;-74
2022/05/10 06:27:07;;;;;;;6.83;2.95;;;;;;;12.54;34.38;100368.09;1774886;79;21036;-63
2022/05/10 06:29:34;;;;;;;6.03;2.72;;;;;;;12.58;33.75;100362.76;1778735;79;21567;-73
2022/05/10 06:32:00;;;;;;;8.10;2.25;;;;;;;12.59;34.99;100369.35;1776740;79;22368;-64
2022/05/10 06:34:31;;;;;;;3.00;1.85;;;;;;;12.65;34.57;100368.12;1766566;79;21631;-65
2022/05/10 06:36:57;;;;;;;4.25;2.12;;;;;;;12.73;33.18;100370.69;1771648;79;21878;-69
2022/05/10 06:39:26;;;;;;;5.55;2.70;;;;;;;12.76;33.58;100365.11;1776834;79;21016;-72
2022/05/10 06:41:53;;;;;;;6.95;3.15;;;;;;;12.81;33.15;100361.39;1780138;79;21016;-73
2022/05/10 06:44:25;;;;;;;7.05;2.95;;;;;;;12.89;34.02;100358.69;1778440;78;21053;-74
2022/05/10 06:46:50;;;;;;;7.28;2.77;;;;;;;13.00;34.21;100356.47;1771740;79;21028;-73
2022/05/10 06:49:18;;;;;;;7.60;3.62;;;;;;;13.11;32.44;100362.56;1753783;80;21131;-74
2022/05/10 06:51:44;;;;;;;10.50;2.98;;;;;;;13.06;32.59;100359.92;1767017;80;21012;-72
2022/05/10 06:54:13;;;;;;;7.78;3.92;;;;;;;13.14;33.83;100354.18;1764466;79;21012;-73
2022/05/10 06:56:41;;;;;;;7.83;3.55;;;;;;;13.25;33.42;100358.88;1766235;80;21052;-73
2022/05/10 06:59:09;;;;;;;8.65;4.20;;;;;;;13.30;32.98;100360.69;1766467;79;21023;-71
2022/05/10 07:01:39;;;;;;;10.75;4.08;;;;;;;13.33;32.90;100353.95;1776496;80;21753;-71
2022/05/10 07:04:07;;;;;;;9.70;4.53;;;;;;;13.39;33.22;100352.67;1751326;79;21077;-71
2022/05/10 07:06:33;;;;;;;11.10;5.37;;;;;;;13.48;33.02;100349.12;1773046;78;21371;-70
2022/05/10 07:09:00;;;;;;;14.45;5.78;;;;;;;13.59;33.15;100345.54;1773310;79;21120;-72
2022/05/10 07:11:27;;;;;;;9.48;3.92;;;;;;;13.65;32.85;100347.60;1762295;79;21036;-68
2022/05/10 07:13:55;;;;;;;8.65;4.47;;;;;;;13.73;33.37;100344.04;1773309;79;21212;-65
2022/05/10 07:16:24;;;;;;;17.05;4.80;;;;;;;13.87;32.95;100341.13;1767795;79;21188;-74
2022/05/10 07:18:51;;;;;;;10.70;5.20;;;;;;;14.00;33.92;100339.38;1764507;79;21020;-72
2022/05/10 07:21:17;;;;;;;11.45;5.47;;;;;;;14.12;32.88;100335.97;1769144;79;20985;-73
2022/05/10 07:23:48;;;;;;;17.45;4.83;;;;;;;14.15;32.35;100329.77;1790486;79;21082;-72
2022/05/10 07:26:18;;;;;;;10.20;3.75;;;;;;;14.21;31.46;100327.66;1791187;79;21194;-65
2022/05/10 07:28:46;;;;;;;6.08;3.55;;;;;;;14.14;30.55;100321.78;1787614;78;20937;-73
2022/05/10 07:31:13;;;;;;;6.42;3.30;;;;;;;14.11;31.00;100325.44;1791911;79;21016;-70
2022/05/10 07:33:40;;;;;;;11.48;3.37;;;;;;;14.16;32.11;100316.73;1791137;79;21001;-74
2022/05/10 07:36:24;;;;;;;8.18;2.60;;;;;;;14.23;30.63;100315.66;1788330;79;20997;-70
2022/05/10 07:38:52;;;;;;;5.42;2.40;;;;;;;14.27;30.41;100322.76;1787631;79;21039;-73
2022/05/10 07:41:21;;;;;;;10.48;4.58;;;;;;;14.24;29.67;100318.69;1762446;79;21047;-73
2022/05/10 07:43:48;;;;;;;13.75;4.53;;;;;;;14.21;30.70;100317.97;1769809;79;21028;-72
2022/05/10 07:46:30;;;;;;;11.55;4.05;;;;;;;14.22;30.30;100308.50;1781545;79;21089;-74
2022/05/10 07:49:01;;;;;;;8.45;4.22;;;;;;;14.32;31.15;100304.02;1774646;79;21013;-71
2022/05/10 07:51:30;;;;;;;6.17;3.83;;;;;;;14.46;31.11;100307.19;1768054;79;21223;-72
2022/05/10 07:53:57;;;;;;;12.20;4.45;;;;;;;14.48;29.03;100312.63;1774150;79;20992;-71
2022/05/10 07:56:24;;;;;;;11.80;4.70;;;;;;;14.38;30.74;100296.92;1773128;79;21321;-73
2022/05/10 07:58:53;;;;;;;12.73;5.75;;;;;;;14.43;31.37;100304.48;1775857;78;21072;-73
2022/05/10 08:01:20;;;;;;;8.10;4.35;;;;;;;14.60;31.74;100308.41;1774914;79;21607;-71
2022/05/10 08:03:49;;;;;;;12.55;4.92;;;;;;;14.68;30.18;100289.55;1771020;79;21213;-74
2022/05/10 08:06:16;;;;;;;19.87;6.87;;;;;;;14.66;30.54;100293.22;1776670;79;21025;-73
2022/05/10 08:08:43;;;;;;;16.75;6.55;;;;;;;14.70;30.43;100288.65;1774473;79;21004;-73
2022/05/10 08:11:09;;;;;;;15.63;6.80;;;;;;;14.77;31.00;100295.08;1757166;80;21021;-72
2022/05/10 08:13:40;;;;;;;11.05;6.42;;;;;;;14.86;30.44;100294.27;1772647;79;20976;-72
2022/05/10 08:16:09;;;;;;;23.70;6.47;;;;;;;14.94;30.01;100278.17;1741579;81;21807;-73
2022/05/10 08:18:45;;;;;;;12.68;6.67;;;;;;;14.91;29.86;100282.41;1745250;80;21006;-72
2022/05/10 08:21:10;;;;;;;11.03;5.97;;;;;;;14.78;29.91;100280.05;1768707;79;21001;-74
2022/05/10 08:23:38;;;;;;;11.57;5.90;;;;;;;14.83;30.62;100278.52;1772952;79;20975;-70
2022/05/10 08:26:06;;;;;;;13.60;6.47;;;;;;;14.94;29.87;100274.01;1766600;79;21092;-73
2022/05/10 08:28:36;;;;;;;31.20;8.55;;;;;;;14.98;30.78;100249.98;1776468;79;21224;-72
2022/05/10 08:31:06;;;;;;;20.37;8.60;;;;;;;15.09;31.14;100276.80;1775000;80;21108;-71
2022/05/10 08:33:38;;;;;;;16.25;7.60;;;;;;;15.18;31.52;100280.94;1778144;79;21064;-72
2022/05/10 08:36:08;;;;;;;16.82;7.60;;;;;;;15.18;31.24;100271.22;1778312;78;21043;-69
2022/05/10 08:38:35;;;;;;;17.98;7.22;;;;;;;15.28;30.28;100264.48;1752143;80;21037;-73
2022/05/10 08:41:27;;;;;;;22.62;8.50;;;;;;;15.40;30.84;100263.77;1766868;79;21111;-71
2022/05/10 08:43:59;;;;;;;18.42;8.48;;;;;;;15.56;30.24;100261.20;1773043;79;21083;-71
2022/05/10 08:46:31;;;;;;;19.48;9.68;;;;;;;15.71;30.32;100254.28;1770244;79;21036;-69
2022/05/10 08:49:22;;;;;;;23.27;10.85;;;;;;;15.73;30.07;100264.45;1752463;80;21104;-71
2022/05/10 08:51:51;;;;;;;22.45;10.63;;;;;;;15.73;29.78;100261.67;1777790;79;21047;-69
2022/05/10 08:54:18;;;;;;;30.00;11.18;;;;;;;15.77;28.86;100263.20;1772080;79;22217;-67
2022/05/10 08:56:58;;;;;;;26.57;11.48;;;;;;;15.77;29.51;100248.75;1778982;79;21033;-71
2022/05/10 08:59:57;;;;;;;21.95;9.70;;;;;;;15.90;29.42;100243.27;1776656;79;21078;-73
2022/05/10 09:02:37;;;;;;;20.92;7.80;;;;;;;15.98;29.23;100251.29;1763464;79;21103;-71
2022/05/10 09:05:36;;;;;;;18.77;7.83;;;;;;;15.90;28.92;100246.84;1764742;80;21043;-72
2022/05/10 09:08:45;;;;;;;17.30;6.37;;;;;;;15.88;29.22;100235.84;1762968;81;21148;-70
2022/05/10 09:11:14;;;;;;;13.53;6.05;;;;;;;15.90;29.38;100231.56;1765174;81;21459;-71
2022/05/10 09:13:41;;;;;;;14.83;5.28;;;;;;;16.08;30.44;100225.08;1763548;81;21054;-73
2022/05/10 09:16:10;;;;;;;11.93;5.00;;;;;;;16.28;29.60;100230.37;1768157;79;21025;-72
2022/05/10 09:18:42;;;;;;;8.03;3.17;;;;;;;16.37;28.49;100233.89;1778082;79;21504;-70
2022/05/10 09:21:47;;;;;;;14.73;3.30;;;;;;;16.08;27.79;100226.47;1748557;79;21875;-72
2022/05/10 09:24:33;;;;;;;7.90;3.43;;;;;;;15.80;28.62;100229.19;1774448;79;21495;-72
2022/05/10 09:27:08;;;;;;;8.38;3.37;;;;;;;15.67;29.59;100222.19;1778870;79;20988;-71
2022/05/10 09:29:44;;;;;;;12.93;3.72;;;;;;;15.87;29.91;100220.31;1744084;80;21016;-70
2022/05/10 09:35:24;;;;;;;8.93;3.58;;;;;;;16.36;30.30;100202.26;1777475;79;22156;-73
2022/05/10 09:38:06;;;;;;;5.70;3.05;;;;;;;16.63;28.18;100198.01;1775226;79;20973;-72
2022/05/10 09:40:48;;;;;;;4.85;2.30;;;;;;;16.65;28.90;100199.87;1776261;79;21076;-67
2022/05/10 09:43:37;;;;;;;5.10;2.33;;;;;;;16.69;28.20;100198.61;1775515;79;21044;-72
2022/05/10 09:46:25;;;;;;;5.70;2.20;;;;;;;16.61;27.96;100195.36;1772938;80;21017;-70
2022/05/10 09:48:55;;;;;;;4.72;2.42;;;;;;;16.58;27.94;100184.92;1772019;80;21166;-73
2022/05/10 09:51:44;;;;;;;8.58;2.47;;;;;;;16.63;28.83;100176.36;1771541;80;21053;-72
2022/05/10 09:54:25;;;;;;;5.65;2.50;;;;;;;16.77;28.85;100183.78;1775806;79;20993;-70
2022/05/10 09:56:58;;;;;;;11.83;2.90;;;;;;;16.92;26.94;100171.74;1705625;82;21645;-69
2022/05/10 09:59:32;;;;;;;4.30;2.40;;;;;;;16.82;27.73;100173.59;1713919;81;21045;-70
2022/05/10 10:02:00;;;;;;;6.00;2.52;;;;;;;16.86;28.05;100180.07;1771769;79;21730;-74
2022/05/10 10:04:40;;;;;;;6.83;3.30;;;;;;;16.87;27.37;100165.02;1761390;79;21556;-73
2022/05/10 10:07:13;;;;;;;11.50;2.83;;;;;;;16.86;28.22;100153.63;1769182;80;21010;-71
2022/05/10 10:09:45;;;;;;;14.53;3.70;;;;;;;16.89;28.58;100156.53;1776797;79;21334;-67
2022/05/10 10:12:37;;;;;;;11.03;3.05;;;;;;;17.04;28.20;100157.02;1772795;79;21475;-72
2022/05/10 10:15:31;;;;;;;5.37;2.60;;;;;;;17.11;28.02;100154.47;1774609;79;21423;-70
2022/05/10 10:18:06;;;;;;;9.60;3.02;;;;;;;17.23;27.95;100150.06;1777155;79;20969;-70
2022/05/10 10:20:55;;;;;;;10.35;2.83;;;;;;;17.33;28.18;100139.02;1772789;80;21033;-70
2022/05/10 10:23:33;;;;;;;8.30;3.10;;;;;;;17.35;27.35;100147.84;1780644;79;20981;-71
2022/05/10 10:26:08;;;;;;;10.25;3.45;;;;;;;17.07;26.72;100141.00;1779192;79;21005;-74
2022/05/10 10:28:40;;;;;;;9.00;3.50;;;;;;;16.77;27.38;100144.00;1781893;79;21105;-72
2022/05/10 10:31:15;;;;;;;12.35;3.30;;;;;;;16.73;27.47;100142.52;1779686;79;21407;-69
2022/05/10 10:33:48;;;;;;;9.25;3.45;;;;;;;16.81;27.07;100137.17;1768157;79;21075;-71
2022/05/10 10:36:23;;;;;;;6.47;2.60;;;;;;;16.91;27.92;100131.96;1766241;79;20994;-66
2022/05/10 10:39:06;;;;;;;5.37;3.00;;;;;;;17.18;28.04;100123.25;1773120;79;21501;-70
2022/05/10 10:42:05;;;;;;;9.40;2.60;;;;;;;17.41;27.78;100124.14;1773039;79;21138;-73
2022/05/10 10:44:37;;;;;;;7.40;2.30;;;;;;;17.55;27.92;100122.94;1773348;79;21036;-72
2022/05/10 10:47:29;;;;;;;36.83;4.05;;;;;;;17.70;27.49;100126.38;1779428;79;21504;-70
2022/05/10 10:50:30;;;;;;;4.60;2.40;;;;;;;17.70;27.53;100115.80;1780901;79;21059;-71
2022/05/10 10:52:58;;;;;;;9.88;2.80;;;;;;;17.87;27.38;100116.08;1779610;79;21098;-70
2022/05/10 10:55:53;;;;;;;7.58;2.80;;;;;;;17.96;26.67;100106.17;1783056;79;21185;-71
2022/05/10 10:58:57;;;;;;;6.95;2.60;;;;;;;18.04;27.13;100109.38;1779435;79;21016;-69
2022/05/10 11:01:52;;;;;;;9.43;2.83;;;;;;;18.13;26.51;100093.30;1778095;79;21056;-70
2022/05/10 11:04:27;;;;;;;7.80;2.85;;;;;;;17.87;25.47;100092.39;1777103;79;21031;-70
2022/05/10 11:06:56;;;;;;;16.17;2.77;;;;;;;17.58;26.21;100097.16;1772224;79;21103;-71
2022/05/10 11:09:50;;;;;;;5.60;2.50;;;;;;;17.42;26.57;100094.33;1761994;79;21169;-72
2022/05/10 11:12:30;;;;;;;8.50;2.40;;;;;;;17.39;27.68;100085.51;1776521;79;21020;-70
2022/05/10 11:15:23;;;;;;;7.37;2.77;;;;;;;17.56;27.63;100082.20;1777203;79;20985;-74
2022/05/10 11:18:23;;;;;;;6.65;2.65;;;;;;;17.70;27.49;100074.01;1760013;80;21100;-71
2022/05/10 11:21:20;;;;;;;6.90;2.87;;;;;;;17.83;27.29;100063.59;1747631;80;21072;-68
2022/05/10 11:24:23;;;;;;;6.17;3.15;;;;;;;17.83;27.39;100069.99;1773720;79;22136;-72
2022/05/10 11:27:15;;;;;;;21.12;4.78;;;;;;;17.84;26.45;100073.59;1761668;79;22394;-72
2022/05/10 11:30:14;;;;;;;18.57;3.77;;;;;;;17.74;26.17;100053.43;1698645;81;21655;-72
2022/05/10 11:32:47;;;;;;;7.90;3.58;;;;;;;17.62;25.69;100059.87;1770692;80;22253;-70
2022/05/10 11:35:55;;;;;;;9.90;2.70;;;;;;;17.41;26.92;100047.55;1770518;79;21036;-74
2022/05/10 11:39:07;;;;;;;10.45;3.42;;;;;;;17.47;27.72;100050.30;1767944;79;22260;-70
2022/05/10 11:42:17;;;;;;;9.70;3.55;;;;;;;17.70;27.73;100054.50;1765253;79;21477;-70
2022/05/10 11:45:22;;;;;;;4.87;2.75;;;;;;;17.82;27.04;100052.23;1767065;79;21013;-71
2022/05/10 11:48:09;;;;;;;5.35;2.92;;;;;;;17.75;26.35;100038.34;1753033;80;21147;-70
2022/05/10 11:51:42;;;;;;;6.22;2.83;;;;;;;17.82;26.78;100029.94;1765252;79;21044;-72
2022/05/10 11:54:16;;;;;;;8.05;2.62;;;;;;;18.00;27.07;100019.25;1767028;79;21196;-63
2022/05/10 11:56:46;;;;;;;7.97;3.12;;;;;;;18.26;26.99;100010.97;1768682;79;21044;-69
2022/05/10 11:59:23;;;;;;;9.45;2.70;;;;;;;18.20;26.71;100019.39;1768413;78;21118;-69
2022/05/10 12:01:55;;;;;;;8.85;3.00;;;;;;;18.10;25.86;100006.17;1752935;80;21575;-71
2022/05/10 12:05:06;;;;;;;6.90;2.98;;;;;;;17.91;26.45;100006.91;1771971;79;20997;-70
2022/05/10 12:07:35;;;;;;;8.00;3.40;;;;;;;17.93;26.78;100007.34;1766658;79;21228;-69
2022/05/10 12:10:11;;;;;;;8.20;3.33;;;;;;;17.98;26.43;100004.28;1776698;79;21580;-72